createdAt,value
2018-12-22T00:00:41.071Z,1.83
2018-12-22T00:03:09.680Z,1.93
2018-12-22T00:05:38.042Z,2.00
2018-12-22T00:08:07.186Z,1.70
2018-12-22T00:10:35.721Z,2.00
2018-12-22T00:13:04.101Z,2.20
2018-12-22T00:15:32.366Z,3.40
2018-12-22T00:18:00.626Z,2.00
2018-12-22T00:20:28.926Z,1.47
2018-12-22T00:22:57.315Z,2.37
2018-12-22T00:25:25.798Z,3.87
2018-12-22T00:27:54.447Z,2.33
2018-12-22T00:30:22.670Z,1.63
2018-12-22T00:32:50.985Z,2.43
2018-12-22T00:35:19.875Z,1.87
2018-12-22T00:37:48.822Z,2.17
2018-12-22T00:40:17.159Z,2.00
2018-12-22T00:42:45.377Z,2.17
2018-12-22T00:45:13.729Z,2.20
2018-12-22T00:47:42.022Z,2.07
2018-12-22T00:50:10.702Z,1.93
2018-12-22T00:52:39.034Z,1.80
2018-12-22T00:55:07.399Z,1.90
2018-12-22T00:57:35.717Z,2.37
2018-12-22T01:00:04.617Z,2.20
2018-12-22T01:02:32.961Z,2.13
2018-12-22T01:05:01.878Z,3.07
2018-12-22T01:07:30.197Z,3.00
2018-12-22T01:09:58.578Z,1.90
2018-12-22T01:12:26.856Z,1.30
2018-12-22T01:14:55.624Z,2.20
2018-12-22T01:17:24.391Z,1.97
2018-12-22T01:19:52.733Z,1.67
2018-12-22T01:22:21.035Z,1.77
2018-12-22T01:24:50.350Z,1.80
2018-12-22T01:27:19.657Z,2.03
2018-12-22T01:29:47.938Z,1.77
2018-12-22T01:32:16.211Z,1.50
2018-12-22T01:34:44.530Z,1.60
2018-12-22T01:37:12.936Z,1.60
2018-12-22T01:39:41.233Z,1.40
2018-12-22T01:42:09.578Z,1.50
2018-12-22T01:44:38.064Z,2.13
2018-12-22T01:47:10.185Z,2.00
2018-12-22T01:49:38.896Z,1.30
2018-12-22T01:52:07.253Z,2.67
2018-12-22T01:54:35.658Z,1.60
2018-12-22T01:57:04.052Z,1.57
2018-12-22T01:59:32.834Z,2.20
2018-12-22T02:02:01.487Z,2.10
2018-12-22T02:04:29.758Z,2.03
2018-12-22T02:06:58.080Z,3.17
2018-12-22T02:09:26.397Z,2.60
2018-12-22T02:11:54.742Z,1.87
2018-12-22T02:14:23.010Z,1.80
2018-12-22T02:16:52.117Z,2.17
2018-12-22T02:19:20.549Z,2.30
2018-12-22T02:21:48.875Z,3.03
2018-12-22T02:24:17.230Z,2.50
2018-12-22T02:26:45.560Z,2.33
2018-12-22T02:29:14.504Z,2.40
2018-12-22T02:31:42.854Z,3.00
2018-12-22T02:34:11.771Z,2.40
2018-12-22T02:36:40.132Z,2.53
2018-12-22T02:39:08.404Z,2.53
2018-12-22T02:41:36.784Z,2.70
2018-12-22T02:44:05.103Z,2.67
2018-12-22T02:46:33.451Z,2.80
2018-12-22T02:49:17.865Z,2.77
2018-12-22T02:51:46.117Z,3.00
2018-12-22T02:54:14.566Z,2.40
2018-12-22T02:56:42.793Z,2.13
2018-12-22T02:59:11.135Z,3.40
2018-12-22T03:01:40.778Z,2.90
2018-12-22T03:04:09.175Z,3.43
2018-12-22T03:06:37.909Z,3.07
2018-12-22T03:09:06.839Z,2.90
2018-12-22T03:11:35.255Z,3.37
2018-12-22T03:14:03.974Z,2.27
2018-12-22T03:16:32.302Z,3.27
2018-12-22T03:19:00.598Z,2.30
2018-12-22T03:21:28.857Z,2.57
2018-12-22T03:23:57.135Z,3.17
2018-12-22T03:26:25.487Z,2.53
2018-12-22T03:28:54.351Z,2.13
2018-12-22T03:31:22.723Z,2.60
2018-12-22T03:33:50.974Z,2.73
2018-12-22T03:36:19.352Z,2.20
2018-12-22T03:38:47.713Z,3.20
2018-12-22T03:41:16.095Z,2.10
2018-12-22T03:43:44.354Z,2.67
2018-12-22T03:46:12.727Z,2.63
2018-12-22T03:48:42.871Z,2.60
2018-12-22T03:51:11.987Z,2.73
2018-12-22T03:53:40.252Z,2.57
2018-12-22T03:56:08.499Z,3.33
2018-12-22T03:58:38.558Z,2.20
2018-12-22T04:01:06.899Z,2.53
2018-12-22T04:03:35.193Z,3.23
2018-12-22T04:06:04.933Z,2.50
2018-12-22T04:08:33.546Z,2.27
2018-12-22T04:11:02.947Z,2.30
2018-12-22T04:13:32.013Z,2.40
2018-12-22T04:16:01.042Z,2.97
2018-12-22T04:18:30.053Z,2.10
2018-12-22T04:20:58.315Z,2.83
2018-12-22T04:23:26.754Z,2.07
2018-12-22T04:25:55.022Z,2.60
2018-12-22T04:28:23.533Z,2.20
2018-12-22T04:30:53.373Z,2.27
2018-12-22T04:33:21.933Z,2.10
2018-12-22T04:35:50.310Z,2.40
2018-12-22T04:38:18.565Z,3.10
2018-12-22T04:40:46.909Z,2.33
2018-12-22T04:43:15.295Z,2.03
2018-12-22T04:45:43.738Z,2.50
2018-12-22T04:48:12.515Z,1.93
2018-12-22T04:50:40.856Z,2.13
2018-12-22T04:53:10.055Z,2.77
2018-12-22T04:55:38.370Z,3.30
2018-12-22T04:58:06.599Z,3.07
2018-12-22T05:00:35.833Z,3.27
2018-12-22T05:03:04.413Z,2.77
2018-12-22T05:05:32.751Z,2.60
2018-12-22T05:08:01.219Z,3.27
2018-12-22T05:10:30.641Z,2.37
2018-12-22T05:12:58.909Z,2.77
2018-12-22T05:15:27.868Z,2.60
2018-12-22T05:17:56.140Z,2.63
2018-12-22T05:20:24.388Z,2.17
2018-12-22T05:22:52.763Z,2.83
2018-12-22T05:25:21.058Z,2.30
2018-12-22T05:27:50.673Z,4.60
2018-12-22T05:30:19.003Z,3.53
2018-12-22T05:32:47.363Z,2.97
2018-12-22T05:35:15.759Z,3.40
2018-12-22T05:37:44.895Z,3.17
2018-12-22T05:40:13.146Z,2.70
2018-12-22T05:42:41.447Z,2.73
2018-12-22T05:45:09.872Z,2.60
2018-12-22T05:47:38.226Z,2.07
2018-12-22T05:50:07.457Z,2.20
2018-12-22T05:52:35.770Z,2.97
2018-12-22T05:55:04.262Z,2.20
2018-12-22T05:57:32.644Z,3.57
2018-12-22T06:00:03.199Z,3.23
2018-12-22T06:02:31.481Z,2.37
2018-12-22T06:04:59.848Z,2.30
2018-12-22T06:07:28.209Z,2.97
2018-12-22T06:09:56.607Z,2.43
2018-12-22T06:12:24.939Z,2.57
2018-12-22T06:14:53.241Z,2.80
2018-12-22T06:17:21.559Z,1.90
2018-12-22T06:19:49.838Z,2.60
2018-12-22T06:22:18.094Z,2.27
2018-12-22T06:24:46.354Z,1.60
2018-12-22T06:27:15.500Z,2.37
2018-12-22T06:29:43.867Z,1.77
2018-12-22T06:32:15.865Z,2.10
2018-12-22T06:34:44.246Z,1.63
2018-12-22T06:37:12.562Z,1.83
2018-12-22T06:39:40.921Z,2.97
2018-12-22T06:42:09.219Z,2.10
2018-12-22T06:44:37.451Z,1.43
2018-12-22T06:47:05.861Z,1.53
2018-12-22T06:49:34.718Z,2.27
2018-12-22T06:52:02.997Z,1.70
2018-12-22T06:54:32.932Z,1.40
2018-12-22T06:57:01.931Z,1.60
2018-12-22T06:59:30.541Z,1.73
2018-12-22T07:01:58.807Z,1.93
2018-12-22T07:04:28.055Z,1.60
2018-12-22T07:06:56.930Z,1.83
2018-12-22T07:09:25.388Z,1.60
2018-12-22T07:11:54.940Z,1.73
2018-12-22T07:14:23.225Z,1.60
2018-12-22T07:16:51.527Z,1.20
2018-12-22T07:19:20.148Z,1.30
2018-12-22T07:21:48.430Z,1.90
2018-12-22T07:24:16.680Z,1.40
2018-12-22T07:26:44.969Z,2.13
2018-12-22T07:29:13.212Z,1.20
2018-12-22T07:31:41.620Z,1.30
2018-12-22T07:34:09.861Z,1.17
2018-12-22T07:36:38.849Z,1.37
2018-12-22T07:39:08.136Z,1.67
2018-12-22T07:41:36.593Z,1.53
2018-12-22T07:44:04.927Z,1.60
2018-12-22T07:46:33.206Z,1.40
2018-12-22T07:49:01.519Z,0.97
2018-12-22T07:51:29.880Z,1.63
2018-12-22T07:53:59.099Z,1.20
2018-12-22T07:56:29.819Z,1.17
2018-12-22T07:58:58.122Z,0.97
2018-12-22T08:01:27.261Z,1.27
2018-12-22T08:03:59.503Z,0.90
2018-12-22T08:06:29.079Z,1.43
2018-12-22T08:08:57.462Z,1.17
2018-12-22T08:11:26.205Z,1.43
2018-12-22T08:13:56.512Z,1.50
2018-12-22T08:16:24.946Z,1.30
2018-12-22T08:18:54.121Z,1.20
2018-12-22T08:21:22.463Z,1.10
2018-12-22T08:23:50.982Z,1.03
2018-12-22T08:26:20.260Z,0.80
2018-12-22T08:28:48.627Z,0.93
2018-12-22T08:31:18.041Z,0.80
2018-12-22T08:33:47.958Z,1.20
2018-12-22T08:36:18.070Z,1.30
2018-12-22T08:38:51.198Z,0.53
2018-12-22T08:41:22.457Z,0.53
2018-12-22T08:43:50.907Z,0.40
2018-12-22T08:46:20.124Z,0.70
2018-12-22T08:48:48.995Z,0.50
2018-12-22T08:51:17.705Z,0.60
2018-12-22T08:53:46.296Z,0.90
2018-12-22T08:56:14.593Z,1.10
2018-12-22T08:58:43.074Z,0.67
2018-12-22T09:01:12.953Z,1.00
2018-12-22T09:03:41.207Z,0.80
2018-12-22T09:06:09.491Z,0.73
2018-12-22T09:08:37.857Z,1.20
2018-12-22T09:11:21.533Z,1.30
2018-12-22T09:13:53.338Z,2.10
2018-12-22T09:16:24.385Z,1.33
2018-12-22T09:18:55.163Z,0.90
2018-12-22T09:21:23.838Z,1.60
2018-12-22T09:23:53.848Z,1.33
2018-12-22T09:26:23.761Z,1.00
2018-12-22T09:28:54.600Z,1.50
2018-12-22T09:31:23.665Z,1.63
2018-12-22T09:33:51.970Z,1.50
2018-12-22T09:36:21.074Z,1.40
2018-12-22T09:38:50.069Z,1.10
2018-12-22T09:41:18.310Z,1.07
2018-12-22T09:43:47.687Z,1.10
2018-12-22T09:46:21.393Z,1.37
2018-12-22T09:48:49.820Z,1.50
2018-12-22T09:51:20.271Z,2.30
2018-12-22T09:53:48.565Z,3.83
2018-12-22T09:56:16.874Z,1.37
2018-12-22T09:58:46.782Z,2.27
2018-12-22T10:01:15.186Z,2.00
2018-12-22T10:03:43.529Z,1.50
2018-12-22T10:06:13.997Z,1.80
2018-12-22T10:08:44.447Z,2.13
2018-12-22T10:11:14.119Z,2.30
2018-12-22T10:13:45.641Z,3.00
2018-12-22T10:16:13.954Z,3.63
2018-12-22T10:18:42.231Z,2.37
2018-12-22T10:21:10.546Z,2.60
2018-12-22T10:23:38.823Z,2.43
2018-12-22T10:26:07.251Z,3.20
2018-12-22T10:28:38.724Z,2.47
2018-12-22T10:31:07.099Z,2.23
2018-12-22T10:33:35.885Z,2.53
2018-12-22T10:36:04.342Z,2.37
2018-12-22T10:38:32.826Z,2.50
2018-12-22T10:41:01.122Z,2.60
2018-12-22T10:43:29.852Z,2.33
2018-12-22T10:45:58.129Z,1.70
2018-12-22T10:48:28.016Z,2.17
2018-12-22T10:50:56.648Z,2.97
2018-12-22T10:53:25.583Z,1.93
2018-12-22T10:55:55.857Z,2.23
2018-12-22T10:58:25.259Z,2.00
2018-12-22T11:00:55.791Z,1.83
2018-12-22T11:03:24.183Z,2.77
2018-12-22T11:05:52.702Z,2.40
2018-12-22T11:08:20.974Z,1.90
2018-12-22T11:10:50.601Z,2.30
2018-12-22T11:13:22.316Z,1.47
2018-12-22T11:15:51.318Z,1.03
2018-12-22T11:18:19.648Z,1.30
2018-12-22T11:20:48.517Z,1.20
2018-12-22T11:23:20.595Z,1.30
2018-12-22T11:25:49.122Z,1.17
2018-12-22T11:28:19.692Z,1.00
2018-12-22T11:30:48.788Z,1.37
2018-12-22T11:33:17.106Z,0.60
2018-12-22T11:35:45.421Z,1.13
2018-12-22T11:38:13.672Z,1.00
2018-12-22T11:40:43.153Z,1.00
2018-12-22T11:43:12.209Z,1.40
2018-12-22T11:45:40.458Z,1.60
2018-12-22T11:49:14.921Z,1.40
2018-12-22T11:51:43.197Z,1.97
2018-12-22T11:54:11.516Z,1.80
2018-12-22T11:56:40.046Z,3.63
2018-12-22T11:59:09.672Z,2.07
2018-12-22T12:01:43.533Z,2.23
2018-12-22T12:04:08.344Z,1.77
2018-12-22T12:06:36.740Z,1.77
2018-12-22T12:09:06.519Z,1.80
2018-12-22T12:11:38.975Z,1.83
2018-12-22T12:14:07.703Z,3.30
2018-12-22T12:17:16.646Z,2.77
2018-12-22T12:19:45.466Z,1.90
2018-12-22T12:22:13.938Z,3.07
2018-12-22T12:24:42.351Z,2.67
2018-12-22T12:27:10.849Z,2.33
2018-12-22T12:29:43.330Z,2.70
2018-12-22T12:32:11.575Z,3.03
2018-12-22T12:34:39.970Z,3.07
2018-12-22T12:37:08.286Z,3.27
2018-12-22T12:39:36.822Z,2.70
2018-12-22T12:42:05.189Z,3.43
2018-12-22T12:44:34.403Z,3.30
2018-12-22T12:47:04.131Z,3.23
2018-12-22T12:49:32.519Z,4.80
2018-12-22T12:52:00.784Z,4.23
2018-12-22T12:54:29.067Z,4.13
2018-12-22T12:56:59.180Z,3.00
2018-12-22T12:59:29.802Z,2.67
2018-12-22T13:02:01.306Z,2.60
2018-12-22T13:04:28.881Z,2.13
2018-12-22T13:06:57.925Z,2.50
2018-12-22T13:09:26.647Z,2.90
2018-12-22T13:11:57.201Z,3.00
2018-12-22T13:14:25.651Z,2.23
2018-12-22T13:16:54.299Z,2.33
2018-12-22T13:19:22.798Z,1.50
2018-12-22T13:21:53.004Z,1.97
2018-12-22T13:24:22.132Z,1.90
2018-12-22T13:26:50.593Z,1.90
2018-12-22T13:29:19.011Z,2.10
2018-12-22T13:31:47.577Z,2.27
2018-12-22T13:34:16.011Z,1.30
2018-12-22T13:36:44.296Z,1.73
2018-12-22T13:39:22.818Z,2.10
2018-12-22T13:41:51.689Z,2.70
2018-12-22T13:44:19.969Z,1.50
2018-12-22T13:46:48.326Z,1.40
2018-12-22T13:49:16.766Z,1.40
2018-12-22T13:51:46.180Z,1.90
2018-12-22T13:54:17.962Z,3.67
2018-12-22T13:56:46.177Z,2.17
2018-12-22T13:59:14.785Z,1.60
2018-12-22T14:01:47.518Z,2.10
2018-12-22T14:04:16.743Z,1.57
2018-12-22T14:06:46.150Z,2.07
2018-12-22T14:09:14.535Z,2.63
2018-12-22T14:11:43.487Z,1.90
2018-12-22T14:14:18.368Z,1.73
2018-12-22T14:16:52.604Z,2.03
2018-12-22T14:19:21.138Z,2.47
2018-12-22T14:21:50.895Z,2.00
2018-12-22T14:24:26.733Z,1.73
2018-12-22T14:26:55.705Z,1.97
2018-12-22T14:29:24.024Z,2.53
2018-12-22T14:31:52.432Z,1.90
2018-12-22T14:34:27.902Z,2.03
2018-12-22T14:36:56.266Z,3.03
2018-12-22T14:39:24.605Z,2.10
2018-12-22T14:41:53.060Z,1.43
2018-12-22T14:44:21.644Z,1.90
2018-12-22T14:46:50.215Z,2.27
2018-12-22T14:49:18.547Z,1.93
2018-12-22T14:51:46.840Z,2.30
2018-12-22T14:54:15.350Z,2.00
2018-12-22T14:56:46.011Z,1.83
2018-12-22T14:59:16.962Z,1.90
2018-12-22T15:01:51.549Z,2.30
2018-12-22T15:04:19.951Z,2.13
2018-12-22T15:06:48.443Z,1.80
2018-12-22T15:09:16.789Z,2.53
2018-12-22T15:11:45.099Z,2.37
2018-12-22T15:14:14.979Z,2.40
2018-12-22T15:16:43.735Z,1.93
2018-12-22T15:19:12.066Z,1.90
2018-12-22T15:21:41.151Z,3.23
2018-12-22T15:24:10.652Z,1.93
2018-12-22T15:26:38.924Z,1.60
2018-12-22T15:29:07.237Z,1.50
2018-12-22T15:31:35.581Z,1.73
2018-12-22T15:34:04.599Z,2.20
2018-12-22T15:36:33.117Z,2.20
2018-12-22T15:39:02.052Z,3.00
2018-12-22T15:41:31.049Z,2.03
2018-12-22T15:43:59.880Z,1.87
2018-12-22T15:46:29.093Z,1.70
2018-12-22T15:48:57.559Z,2.20
2018-12-22T15:51:26.164Z,2.43
2018-12-22T15:53:55.441Z,1.67
2018-12-22T15:56:23.889Z,1.70
2018-12-22T15:58:52.190Z,1.93
2018-12-22T16:01:20.553Z,2.60
2018-12-22T16:03:49.101Z,2.30
2018-12-22T16:06:17.609Z,2.07
2018-12-22T16:08:48.091Z,1.83
2018-12-22T16:11:16.506Z,1.97
2018-12-22T16:13:45.472Z,2.23
2018-12-22T16:16:15.927Z,1.73
2018-12-22T16:18:44.351Z,2.07
2018-12-22T16:21:12.619Z,2.00
2018-12-22T16:23:41.291Z,2.53
2018-12-22T16:26:09.815Z,3.10
2018-12-22T16:28:42.325Z,2.23
2018-12-22T16:31:10.963Z,2.43
2018-12-22T16:33:39.439Z,2.10
2018-12-22T16:36:07.872Z,1.80
2018-12-22T16:38:36.417Z,2.30
2018-12-22T16:41:04.831Z,2.43
2018-12-22T16:43:33.207Z,2.27
2018-12-22T16:46:01.834Z,2.90
2018-12-22T16:48:30.766Z,1.87
2018-12-22T16:50:59.033Z,2.67
2018-12-22T16:53:28.933Z,3.47
2018-12-22T16:55:57.784Z,1.73
2018-12-22T16:58:33.266Z,2.43
2018-12-22T17:01:59.078Z,2.03
2018-12-22T17:04:27.504Z,2.47
2018-12-22T17:06:55.913Z,2.03
2018-12-22T17:09:24.979Z,2.80
2018-12-22T17:11:53.311Z,2.27
2018-12-22T17:14:21.685Z,2.87
2018-12-22T17:16:50.174Z,3.00
2018-12-22T17:19:18.592Z,2.27
2018-12-22T17:22:00.635Z,2.50
2018-12-22T17:24:38.063Z,2.47
2018-12-22T17:27:06.471Z,3.27
2018-12-22T17:29:34.905Z,3.47
2018-12-22T17:32:04.386Z,2.90
2018-12-22T17:34:32.662Z,3.43
2018-12-22T17:37:01.121Z,2.17
2018-12-22T17:39:36.631Z,3.47
2018-12-22T17:42:00.500Z,3.03
2018-12-22T17:44:29.012Z,3.40
2018-12-22T17:46:58.498Z,3.67
2018-12-22T17:49:26.981Z,2.80
2018-12-22T17:51:55.503Z,2.63
2018-12-22T17:54:23.893Z,3.03
2018-12-22T17:56:52.181Z,2.57
2018-12-22T17:59:20.854Z,2.53
2018-12-22T18:01:49.235Z,2.70
2018-12-22T18:04:17.501Z,3.80
2018-12-22T18:06:46.781Z,2.77
2018-12-22T18:09:15.133Z,3.23
2018-12-22T18:11:43.490Z,2.57
2018-12-22T18:14:11.810Z,2.83
2018-12-22T18:16:40.200Z,2.90
2018-12-22T18:19:09.191Z,2.80
2018-12-22T18:21:37.624Z,5.03
2018-12-22T18:24:05.953Z,2.47
2018-12-22T18:26:34.201Z,2.80
2018-12-22T18:29:03.494Z,3.00
2018-12-22T18:31:31.923Z,3.67
2018-12-22T18:34:00.201Z,2.63
2018-12-22T18:36:28.510Z,3.63
2018-12-22T18:39:01.063Z,3.30
2018-12-22T18:41:30.402Z,2.40
2018-12-22T18:43:59.754Z,3.00
2018-12-22T18:46:29.501Z,2.67
2018-12-22T18:48:58.564Z,2.83
2018-12-22T18:51:27.495Z,3.03
2018-12-22T18:53:56.617Z,3.63
2018-12-22T18:56:26.513Z,2.40
2018-12-22T18:58:56.022Z,4.37
2018-12-22T19:01:25.383Z,3.50
2018-12-22T19:03:53.774Z,3.63
2018-12-22T19:06:22.173Z,4.47
2018-12-22T19:08:51.693Z,3.33
2018-12-22T19:11:21.349Z,2.87
2018-12-22T19:13:50.071Z,3.53
2018-12-22T19:16:24.173Z,3.50
2018-12-22T19:18:53.298Z,3.53
2018-12-22T19:21:22.586Z,2.30
2018-12-22T19:23:50.979Z,2.40
2018-12-22T19:26:19.274Z,2.27
2018-12-22T19:28:47.780Z,2.90
2018-12-22T19:31:16.192Z,3.53
2018-12-22T19:33:53.302Z,3.77
2018-12-22T19:36:16.011Z,3.70
2018-12-22T19:38:44.493Z,2.70
2018-12-22T19:41:12.926Z,2.83
2018-12-22T19:43:41.882Z,2.93
2018-12-22T19:46:10.847Z,3.30
2018-12-22T19:48:39.674Z,2.83
2018-12-22T19:51:08.121Z,3.10
2018-12-22T19:53:37.880Z,2.80
2018-12-22T19:56:06.929Z,2.70
2018-12-22T19:58:35.526Z,2.90
2018-12-22T20:01:04.396Z,3.37
2018-12-22T20:03:33.253Z,3.27
2018-12-22T20:06:01.813Z,3.87
2018-12-22T20:08:30.299Z,4.63
2018-12-22T20:11:00.132Z,3.50
2018-12-22T20:13:28.471Z,3.07
2018-12-22T20:15:57.348Z,3.67
2018-12-22T20:18:26.767Z,2.60
2018-12-22T20:20:55.054Z,3.40
2018-12-22T20:23:23.288Z,3.67
2018-12-22T20:25:51.648Z,3.90
2018-12-22T20:28:20.234Z,4.30
2018-12-22T20:30:49.102Z,5.23
2018-12-22T20:33:17.564Z,3.90
2018-12-22T20:35:46.073Z,3.70
2018-12-22T20:38:14.443Z,4.10
2018-12-22T20:40:42.697Z,4.30
2018-12-22T20:43:11.031Z,3.97
2018-12-22T20:45:39.348Z,4.00
2018-12-22T20:48:07.713Z,5.30
2018-12-22T20:50:36.907Z,4.87
2018-12-22T20:53:05.249Z,5.37
2018-12-22T20:55:33.598Z,5.27
2018-12-22T20:58:02.784Z,5.37
2018-12-22T21:00:31.136Z,5.43
2018-12-22T21:02:59.497Z,5.00
2018-12-22T21:05:32.865Z,5.07
2018-12-22T21:08:01.223Z,4.87
2018-12-22T21:10:29.708Z,4.10
2018-12-22T21:12:58.079Z,4.87
2018-12-22T21:15:26.466Z,4.00
2018-12-22T21:17:54.748Z,4.60
2018-12-22T21:20:23.198Z,4.17
2018-12-22T21:22:52.023Z,4.03
2018-12-22T21:25:21.207Z,3.40
2018-12-22T21:27:50.921Z,4.50
2018-12-22T21:30:19.225Z,3.90
2018-12-22T21:32:47.617Z,3.90
2018-12-22T21:35:15.925Z,5.33
2018-12-22T21:37:44.308Z,3.40
2018-12-22T21:40:12.575Z,6.70
2018-12-22T21:42:40.933Z,4.43
2018-12-22T21:45:09.290Z,5.57
2018-12-22T21:47:37.751Z,5.33
2018-12-22T21:50:06.867Z,5.43
2018-12-22T21:52:35.319Z,4.73
2018-12-22T21:55:03.738Z,4.70
2018-12-22T21:57:32.256Z,4.13
2018-12-22T22:00:00.933Z,4.57
2018-12-22T22:02:30.548Z,3.97
2018-12-22T22:04:58.907Z,3.77
2018-12-22T22:07:27.216Z,5.17
2018-12-22T22:09:55.639Z,4.13
2018-12-22T22:12:24.086Z,5.13
2018-12-22T22:14:52.471Z,4.00
2018-12-22T22:17:20.778Z,4.73
2018-12-22T22:19:49.173Z,4.27
2018-12-22T22:22:21.562Z,3.63
2018-12-22T22:24:50.552Z,4.73
2018-12-22T22:27:18.904Z,4.87
2018-12-22T22:29:47.175Z,4.37
2018-12-22T22:32:15.428Z,4.87
2018-12-22T22:34:45.757Z,4.33
2018-12-22T22:37:14.973Z,4.43
2018-12-22T22:39:44.115Z,6.20
2018-12-22T22:42:12.535Z,5.53
2018-12-22T22:44:40.906Z,4.13
2018-12-22T22:47:09.892Z,4.80
2018-12-22T22:49:38.302Z,5.00
2018-12-22T22:52:06.777Z,4.50
2018-12-22T22:54:36.413Z,4.03
2018-12-22T22:57:05.167Z,4.73
2018-12-22T22:59:33.561Z,3.90
2018-12-22T23:02:02.592Z,3.97
2018-12-22T23:04:31.030Z,3.63
2018-12-22T23:07:00.101Z,4.33
2018-12-22T23:09:28.506Z,5.87
2018-12-22T23:11:57.049Z,5.23
2018-12-22T23:14:25.738Z,4.67
2018-12-22T23:16:54.597Z,4.57
2018-12-22T23:19:23.017Z,4.67
2018-12-22T23:21:54.200Z,5.67
2018-12-22T23:24:22.513Z,4.57
2018-12-22T23:26:56.157Z,5.23
2018-12-22T23:29:25.009Z,5.57
2018-12-22T23:31:55.842Z,4.27
2018-12-22T23:34:24.427Z,4.57
2018-12-22T23:36:55.917Z,4.40
2018-12-22T23:39:24.448Z,3.93
2018-12-22T23:41:53.917Z,5.17
2018-12-22T23:44:22.230Z,4.50
2018-12-22T23:46:51.210Z,5.70
2018-12-22T23:49:19.589Z,4.43
2018-12-22T23:51:48.951Z,4.63
2018-12-22T23:54:17.380Z,4.00
2018-12-22T23:56:46.098Z,3.97
2018-12-22T23:59:14.433Z,3.60
